Time;durP1;ratioP1;P1;durP2;ratioP2;P2;SDS_P1;SDS_P2;PMS_P1;PMS_P2;Temp;Humidity;BMP_temperature;BMP_pressure;BME280_temperature;BME280_humidity;BME280_pressure;Samples;Min_cycle;Max_cycle;Signal;HPM_P1;HPM_P2
2021/03/18 00:00:24;;;;;;;1.20;1.20;;;2.50;98.00;;;;;;5050337;28;20461;-81
2021/03/18 00:02:50;;;;;;;1.30;1.10;;;2.60;98.00;;;;;;5052621;28;20486;-81
2021/03/18 00:05:17;;;;;;;1.40;1.10;;;2.60;98.00;;;;;;5049877;28;20485;-81
2021/03/18 00:07:46;;;;;;;1.63;1.53;;;2.70;98.00;;;;;;5052589;28;20485;-81
2021/03/18 00:10:13;;;;;;;2.07;1.47;;;2.70;98.00;;;;;;5049962;28;20481;-82
2021/03/18 00:12:40;;;;;;;3.40;1.33;;;2.70;98.00;;;;;;5052204;28;20501;-81
2021/03/18 00:15:08;;;;;;;2.33;1.33;;;2.60;98.00;;;;;;5049896;28;20933;-81
2021/03/18 00:17:35;;;;;;;3.20;1.30;;;2.60;98.00;;;;;;5052389;28;20476;-81
2021/03/18 00:20:04;;;;;;;1.60;1.47;;;2.50;98.00;;;;;;5049682;28;20461;-81
2021/03/18 00:22:30;;;;;;;1.20;1.00;;;2.40;98.00;;;;;;5051402;28;20477;-81
2021/03/18 00:24:58;;;;;;;1.20;1.00;;;2.30;98.00;;;;;;5049089;28;20430;-81
2021/03/18 00:27:24;;;;;;;1.20;1.10;;;2.40;98.00;;;;;;5052170;28;20472;-81
2021/03/18 00:29:51;;;;;;;1.30;1.20;;;2.20;98.00;;;;;;5049329;28;20574;-81
2021/03/18 00:32:18;;;;;;;1.20;0.90;;;2.10;98.00;;;;;;5052001;28;20465;-81
2021/03/18 00:34:44;;;;;;;1.20;1.03;;;2.20;98.00;;;;;;5049430;28;20450;-81
2021/03/18 00:37:11;;;;;;;1.20;1.07;;;2.40;98.00;;;;;;5051943;28;20465;-81
2021/03/18 00:39:38;;;;;;;1.63;1.57;;;2.50;98.00;;;;;;5049663;28;20456;-81
2021/03/18 00:42:06;;;;;;;1.20;1.10;;;2.50;98.00;;;;;;5051844;28;20462;-81
2021/03/18 00:44:32;;;;;;;1.57;1.30;;;2.70;98.00;;;;;;5048792;28;20449;-83
2021/03/18 00:46:59;;;;;;;1.20;1.10;;;2.70;98.00;;;;;;5051608;28;20527;-81
2021/03/18 00:49:27;;;;;;;1.20;1.20;;;2.70;98.00;;;;;;5051806;28;20487;-81
2021/03/18 00:51:53;;;;;;;1.20;1.00;;;2.50;98.00;;;;;;5049083;28;20967;-82
2021/03/18 00:54:22;;;;;;;2.07;1.53;;;2.30;98.00;;;;;;5051386;28;20519;-81
2021/03/18 00:56:48;;;;;;;1.70;1.53;;;2.20;98.00;;;;;;5048932;28;20461;-81
2021/03/18 00:59:17;;;;;;;1.37;1.33;;;2.20;98.00;;;;;;5051065;28;20454;-81
2021/03/18 01:01:43;;;;;;;1.83;1.40;;;2.20;98.00;;;;;;5049345;28;20462;-82
2021/03/18 01:04:10;;;;;;;1.20;1.10;;;2.30;98.00;;;;;;5051496;28;20857;-81
2021/03/18 01:06:38;;;;;;;2.00;1.93;;;2.30;98.00;;;;;;5049038;28;21013;-81
2021/03/18 01:09:06;;;;;;;1.17;1.07;;;2.50;98.00;;;;;;5051526;28;20482;-81
2021/03/18 01:11:36;;;;;;;1.67;1.57;;;2.50;98.00;;;;;;5049161;28;20462;-81
2021/03/18 01:14:06;;;;;;;1.53;1.13;;;2.50;98.00;;;;;;5051453;28;20958;-82
2021/03/18 01:16:37;;;;;;;2.03;1.67;;;2.40;98.00;;;;;;5048852;28;20472;-81
2021/03/18 01:19:06;;;;;;;1.20;1.00;;;2.40;98.00;;;;;;5051533;28;20449;-81
2021/03/18 01:21:35;;;;;;;2.03;1.70;;;2.40;98.00;;;;;;5049149;28;20826;-81
2021/03/18 01:24:03;;;;;;;1.20;1.07;;;2.40;98.00;;;;;;5050208;28;20480;-81
2021/03/18 01:26:30;;;;;;;1.97;1.70;;;2.50;98.00;;;;;;5048624;28;20454;-81
2021/03/18 01:28:56;;;;;;;3.00;2.20;;;2.30;98.00;;;;;;5051177;28;20485;-81
2021/03/18 01:31:23;;;;;;;1.97;1.30;;;2.30;98.00;;;;;;5048282;28;20466;-81
2021/03/18 01:33:51;;;;;;;1.43;1.40;;;2.30;98.00;;;;;;5053519;28;20462;-81
2021/03/18 01:36:18;;;;;;;1.60;1.33;;;2.30;98.00;;;;;;5051138;28;20465;-81
2021/03/18 01:38:46;;;;;;;5.20;2.60;;;2.50;98.00;;;;;;5054577;28;20493;-81
2021/03/18 01:41:13;;;;;;;2.13;1.67;;;2.50;98.00;;;;;;5052399;28;20504;-81
2021/03/18 01:43:42;;;;;;;1.40;1.30;;;2.30;98.00;;;;;;5055189;28;20462;-81
2021/03/18 01:46:11;;;;;;;1.60;1.53;;;2.10;98.00;;;;;;5051936;28;20563;-81
2021/03/18 01:48:39;;;;;;;2.17;1.40;;;2.00;98.00;;;;;;5055129;28;20884;-81
2021/03/18 01:51:06;;;;;;;2.77;1.43;;;2.00;98.00;;;;;;5052194;28;20465;-81
2021/03/18 01:53:34;;;;;;;1.20;1.10;;;2.10;98.00;;;;;;5054641;28;20588;-81
2021/03/18 01:56:02;;;;;;;2.93;1.57;;;2.20;98.00;;;;;;5052173;28;20456;-80
2021/03/18 01:58:31;;;;;;;1.30;1.20;;;2.20;98.00;;;;;;5055277;28;20932;-81
2021/03/18 02:01:01;;;;;;;1.20;1.20;;;2.20;98.00;;;;;;5052297;28;20454;-81
2021/03/18 02:03:30;;;;;;;1.40;1.30;;;2.10;98.00;;;;;;5054911;28;20500;-81
2021/03/18 02:05:56;;;;;;;1.67;1.60;;;2.00;98.00;;;;;;5052103;28;20535;-80
2021/03/18 02:08:25;;;;;;;1.40;1.23;;;2.10;98.00;;;;;;5054730;28;20461;-81
2021/03/18 02:10:52;;;;;;;1.43;1.30;;;2.10;98.00;;;;;;5051750;28;20488;-81
2021/03/18 02:13:20;;;;;;;1.67;1.40;;;2.10;98.00;;;;;;5054689;28;20465;-81
2021/03/18 02:15:51;;;;;;;1.30;1.30;;;2.10;98.00;;;;;;5051910;28;20468;-81
2021/03/18 02:18:25;;;;;;;1.73;1.63;;;2.00;98.00;;;;;;5053242;28;20944;-81
2021/03/18 02:21:11;;;;;;;1.30;1.20;;;2.00;98.00;;;;;;5051816;28;20797;-80
2021/03/18 02:24:10;;;;;;;1.20;1.17;;;2.10;98.00;;;;;;5054490;28;20462;-81
2021/03/18 02:27:13;;;;;;;1.10;0.90;;;2.20;98.00;;;;;;5051564;28;20476;-80
2021/03/18 02:30:25;;;;;;;1.30;1.03;;;2.40;98.00;;;;;;5053766;28;20557;-81
2021/03/18 02:33:08;;;;;;;1.20;1.00;;;2.40;98.00;;;;;;5054041;28;20968;-81
2021/03/18 02:35:39;;;;;;;2.17;1.80;;;2.50;98.00;;;;;;5051888;28;20458;-81
2021/03/18 02:38:10;;;;;;;2.13;1.97;;;2.50;98.00;;;;;;5054212;28;20881;-80
2021/03/18 02:40:41;;;;;;;2.03;1.93;;;2.50;98.00;;;;;;5051430;28;20461;-80
2021/03/18 02:43:12;;;;;;;1.37;1.20;;;2.50;98.00;;;;;;5052642;28;20458;-80
2021/03/18 02:45:43;;;;;;;1.83;1.73;;;2.50;98.00;;;;;;5049101;28;20454;-80
2021/03/18 02:48:18;;;;;;;1.20;1.00;;;2.50;98.00;;;;;;5053718;28;20469;-81
2021/03/18 02:50:47;;;;;;;3.47;2.03;;;2.60;98.00;;;;;;5049180;28;20488;-81
2021/03/18 02:53:17;;;;;;;2.80;1.70;;;2.50;98.00;;;;;;5053708;28;20457;-81
2021/03/18 02:55:45;;;;;;;1.57;1.30;;;2.50;98.00;;;;;;5051097;28;20461;-81
2021/03/18 02:58:13;;;;;;;3.53;1.43;;;2.30;98.00;;;;;;5053522;28;20954;-81
2021/03/18 03:00:40;;;;;;;1.63;1.37;;;2.10;98.00;;;;;;5051316;28;20548;-80
2021/03/18 03:03:07;;;;;;;1.20;1.20;;;2.20;98.00;;;;;;5053607;28;20461;-80
2021/03/18 03:05:35;;;;;;;3.00;1.77;;;2.30;98.00;;;;;;5051077;28;20461;-80
2021/03/18 03:08:06;;;;;;;2.60;1.43;;;2.30;98.00;;;;;;5053632;28;20498;-81
2021/03/18 03:10:33;;;;;;;1.80;1.70;;;2.40;98.00;;;;;;5050749;28;20492;-81
2021/03/18 03:13:01;;;;;;;1.67;1.13;;;2.40;98.00;;;;;;5053262;28;20457;-80
2021/03/18 03:15:31;;;;;;;1.97;1.63;;;2.50;98.00;;;;;;5049461;28;20473;-81
2021/03/18 03:18:00;;;;;;;1.20;1.13;;;2.50;98.00;;;;;;5053332;28;20973;-80
2021/03/18 03:20:28;;;;;;;1.43;1.20;;;2.50;98.00;;;;;;5050682;28;20960;-80
2021/03/18 03:22:56;;;;;;;1.20;1.00;;;2.60;98.00;;;;;;5053268;28;20896;-80
2021/03/18 03:25:26;;;;;;;1.50;1.40;;;2.70;98.00;;;;;;5050395;28;20462;-81
2021/03/18 03:27:53;;;;;;;1.77;1.67;;;2.80;98.00;;;;;;5052710;28;20481;-81
2021/03/18 03:30:21;;;;;;;1.20;1.00;;;2.50;98.00;;;;;;5050170;28;20489;-81
2021/03/18 03:32:47;;;;;;;1.20;1.10;;;2.40;98.00;;;;;;5052805;28;20464;-80
2021/03/18 03:35:15;;;;;;;1.20;1.00;;;2.30;98.00;;;;;;5050611;28;20511;-81
2021/03/18 03:37:43;;;;;;;1.50;1.43;;;2.40;98.00;;;;;;5052928;28;20824;-80
2021/03/18 03:40:13;;;;;;;2.73;1.40;;;2.30;98.00;;;;;;5050234;28;21236;-81
2021/03/18 03:42:43;;;;;;;1.60;1.50;;;2.20;98.00;;;;;;5052806;28;20468;-80
2021/03/18 03:45:12;;;;;;;1.77;1.30;;;2.20;98.00;;;;;;5050211;28;20531;-80
2021/03/18 03:47:39;;;;;;;1.93;1.20;;;2.10;98.00;;;;;;5052341;28;20480;-81
2021/03/18 03:50:07;;;;;;;2.23;2.07;;;2.10;98.00;;;;;;5049998;28;20529;-81
2021/03/18 03:52:38;;;;;;;2.23;2.07;;;2.10;98.00;;;;;;5052547;28;20457;-81
2021/03/18 03:55:12;;;;;;;1.40;1.40;;;2.10;98.00;;;;;;5049928;28;20469;-81
2021/03/18 03:57:49;;;;;;;4.17;2.23;;;2.30;98.00;;;;;;5052404;28;20511;-81
2021/03/18 04:00:17;;;;;;;1.17;1.07;;;2.20;98.00;;;;;;5049823;28;20959;-80
2021/03/18 04:02:46;;;;;;;1.20;1.00;;;2.30;98.00;;;;;;5052612;28;20522;-80
2021/03/18 04:05:14;;;;;;;1.53;1.53;;;2.30;98.00;;;;;;5048605;28;20500;-80
2021/03/18 04:07:41;;;;;;;2.47;1.40;;;2.50;98.00;;;;;;5052520;28;20465;-81
2021/03/18 04:10:11;;;;;;;1.70;1.50;;;2.40;98.00;;;;;;5048621;28;20489;-80
2021/03/18 04:12:40;;;;;;;2.43;1.53;;;2.50;98.00;;;;;;5052027;28;20462;-80
2021/03/18 04:15:10;;;;;;;2.60;2.10;;;2.50;98.00;;;;;;5049736;28;20458;-81
2021/03/18 04:17:40;;;;;;;1.50;1.20;;;2.40;98.00;;;;;;5052136;28;20515;-80
2021/03/18 04:20:10;;;;;;;1.50;1.40;;;2.20;98.00;;;;;;5049668;28;20457;-80
2021/03/18 04:22:37;;;;;;;2.60;1.80;;;2.20;98.00;;;;;;5052100;28;20486;-80
2021/03/18 04:25:06;;;;;;;2.53;1.30;;;2.30;98.00;;;;;;5048719;28;20497;-81
2021/03/18 04:27:33;;;;;;;1.50;1.30;;;2.40;98.00;;;;;;5052279;28;20462;-80
2021/03/18 04:30:02;;;;;;;2.50;2.07;;;2.50;98.00;;;;;;5049441;28;21010;-80
2021/03/18 04:32:30;;;;;;;1.20;1.10;;;2.60;98.00;;;;;;5051864;28;20511;-80
2021/03/18 04:34:57;;;;;;;3.57;2.23;;;2.60;98.00;;;;;;5049278;28;20793;-81
2021/03/18 04:37:24;;;;;;;2.20;1.60;;;2.50;98.00;;;;;;5051741;28;20489;-80
2021/03/18 04:39:51;;;;;;;1.87;1.30;;;2.30;98.00;;;;;;5051755;28;20485;-80
2021/03/18 04:42:18;;;;;;;2.03;1.67;;;2.30;98.00;;;;;;5049528;28;20952;-80
2021/03/18 04:44:46;;;;;;;1.63;1.57;;;2.40;98.00;;;;;;5051388;28;20457;-80
2021/03/18 04:47:16;;;;;;;2.80;1.50;;;2.30;98.00;;;;;;5047592;28;20884;-80
2021/03/18 04:49:45;;;;;;;1.20;1.00;;;2.40;98.00;;;;;;5051444;28;20490;-80
2021/03/18 04:52:14;;;;;;;2.53;1.97;;;2.40;98.00;;;;;;5048718;28;20932;-80
2021/03/18 04:54:41;;;;;;;1.20;1.10;;;2.40;98.00;;;;;;5050970;28;20523;-80
2021/03/18 04:57:09;;;;;;;1.20;1.13;;;2.40;98.00;;;;;;5048710;28;20464;-80
2021/03/18 04:59:36;;;;;;;7.23;2.90;;;2.20;98.00;;;;;;5050884;28;20472;-80
2021/03/18 05:02:04;;;;;;;1.17;1.00;;;2.10;98.00;;;;;;5047596;28;20951;-81
2021/03/18 05:04:32;;;;;;;2.07;1.70;;;2.00;98.00;;;;;;5051275;28;20454;-81
2021/03/18 05:07:02;;;;;;;2.70;2.23;;;2.10;98.00;;;;;;5048973;28;20485;-80
2021/03/18 05:09:30;;;;;;;1.33;1.30;;;2.10;98.00;;;;;;5057410;28;20484;-81
2021/03/18 05:11:57;;;;;;;1.20;1.20;;;1.90;98.00;;;;;;5055444;28;20493;-80
2021/03/18 05:14:27;;;;;;;2.83;1.73;;;1.80;98.00;;;;;;5057835;28;20963;-81
2021/03/18 05:16:54;;;;;;;1.73;1.63;;;1.80;98.00;;;;;;5055609;28;20481;-80
2021/03/18 05:19:22;;;;;;;3.23;2.20;;;1.70;98.00;;;;;;5057683;28;20508;-81
2021/03/18 05:21:51;;;;;;;2.20;1.90;;;1.70;98.00;;;;;;5054376;28;21037;-80
2021/03/18 05:24:19;;;;;;;2.13;1.70;;;1.80;98.00;;;;;;5058123;28;20468;-81
2021/03/18 05:26:46;;;;;;;2.23;1.60;;;1.90;98.00;;;;;;5055508;28;20453;-80
2021/03/18 05:29:16;;;;;;;1.80;1.70;;;1.90;98.00;;;;;;5057931;28;20836;-80
2021/03/18 05:31:44;;;;;;;3.10;2.00;;;1.90;98.00;;;;;;5055702;28;20505;-81
2021/03/18 05:34:11;;;;;;;1.57;1.50;;;1.80;98.00;;;;;;5058071;28;20522;-81
2021/03/18 05:36:38;;;;;;;1.77;1.57;;;2.00;98.00;;;;;;5054134;28;20506;-80
2021/03/18 05:39:05;;;;;;;1.20;1.10;;;2.10;98.00;;;;;;5057814;28;20461;-81
2021/03/18 05:41:36;;;;;;;1.40;1.27;;;2.10;98.00;;;;;;5055756;28;20494;-80
2021/03/18 05:44:05;;;;;;;2.20;1.90;;;2.10;98.00;;;;;;5056986;28;20484;-80
2021/03/18 05:46:32;;;;;;;2.73;2.13;;;2.00;98.00;;;;;;5055328;28;20599;-80
2021/03/18 05:48:59;;;;;;;1.90;1.77;;;1.90;98.00;;;;;;5057743;28;20465;-81
2021/03/18 05:51:28;;;;;;;3.97;1.47;;;1.90;98.00;;;;;;5055379;28;20460;-80
2021/03/18 05:53:56;;;;;;;2.40;1.70;;;2.00;98.00;;;;;;5057887;28;20468;-81
2021/03/18 05:56:24;;;;;;;2.37;1.90;;;2.10;98.00;;;;;;5055504;28;20464;-80
2021/03/18 05:58:53;;;;;;;1.93;1.30;;;2.10;98.00;;;;;;5057813;28;20839;-80
2021/03/18 06:01:20;;;;;;;1.80;1.77;;;2.20;98.00;;;;;;5055012;28;20450;-80
2021/03/18 06:03:47;;;;;;;2.37;2.07;;;2.10;98.00;;;;;;5057409;28;20461;-81
2021/03/18 06:06:14;;;;;;;2.57;1.57;;;2.00;98.00;;;;;;5055246;28;20496;-81
2021/03/18 06:08:42;;;;;;;1.20;1.10;;;1.90;98.00;;;;;;5057456;28;20456;-80
2021/03/18 06:11:10;;;;;;;1.10;1.10;;;1.90;98.00;;;;;;5054670;28;20488;-80
2021/03/18 06:13:37;;;;;;;1.37;1.33;;;2.00;98.00;;;;;;5057298;28;20518;-77
2021/03/18 06:16:08;;;;;;;1.60;1.27;;;2.10;98.00;;;;;;5054801;28;20936;-80
2021/03/18 06:18:35;;;;;;;2.30;1.60;;;1.90;98.00;;;;;;5056971;28;20493;-80
2021/03/18 06:21:03;;;;;;;2.53;1.87;;;1.90;98.00;;;;;;5050237;28;20464;-80
2021/03/18 06:23:31;;;;;;;1.53;1.43;;;2.00;98.00;;;;;;5053924;28;20461;-80
2021/03/18 06:25:58;;;;;;;1.50;1.43;;;2.10;98.00;;;;;;5051542;28;20489;-80
2021/03/18 06:28:27;;;;;;;1.77;1.67;;;2.20;98.00;;;;;;5053151;28;20504;-80
2021/03/18 06:31:06;;;;;;;1.50;1.40;;;2.10;98.00;;;;;;5051491;28;20861;-80
2021/03/18 06:33:34;;;;;;;1.70;1.60;;;2.10;98.00;;;;;;5054128;28;20551;-80
2021/03/18 06:36:02;;;;;;;1.87;1.73;;;2.10;98.00;;;;;;5051465;28;20485;-80
2021/03/18 06:38:31;;;;;;;1.50;1.40;;;2.00;98.00;;;;;;5052642;28;20461;-80
2021/03/18 06:40:58;;;;;;;1.20;1.10;;;2.00;98.00;;;;;;5051790;28;20454;-80
2021/03/18 06:43:39;;;;;;;1.60;1.20;;;1.90;98.00;;;;;;5053731;28;20812;-80
2021/03/18 06:46:18;;;;;;;2.27;2.07;;;1.90;98.00;;;;;;5051188;28;20477;-80
2021/03/18 06:48:45;;;;;;;2.07;1.50;;;1.90;98.00;;;;;;5053652;28;20505;-81
2021/03/18 06:51:24;;;;;;;1.20;1.17;;;2.00;98.00;;;;;;5050931;28;20519;-79
2021/03/18 06:53:52;;;;;;;1.50;1.20;;;2.10;98.00;;;;;;5053697;28;21004;-79
2021/03/18 06:56:26;;;;;;;1.30;1.27;;;2.20;98.00;;;;;;5050757;28;20454;-80
2021/03/18 06:58:54;;;;;;;1.50;1.43;;;2.50;98.00;;;;;;5053616;28;20540;-80
2021/03/18 07:01:26;;;;;;;2.37;1.80;;;2.50;98.00;;;;;;5050774;28;20508;-81
2021/03/18 07:04:02;;;;;;;1.20;1.00;;;2.60;98.00;;;;;;5053231;28;20514;-80
2021/03/18 07:06:32;;;;;;;1.37;1.20;;;2.70;98.00;;;;;;5050338;28;20468;-81
2021/03/18 07:09:06;;;;;;;2.73;1.77;;;2.70;98.00;;;;;;5052144;28;20461;-81
2021/03/18 07:11:38;;;;;;;1.50;1.50;;;2.90;98.00;;;;;;5050961;28;20446;-81
2021/03/18 07:14:12;;;;;;;1.47;1.20;;;2.90;98.00;;;;;;5055131;28;20974;-81
2021/03/18 07:16:42;;;;;;;2.70;2.23;;;2.90;98.00;;;;;;5051501;28;20467;-84
2021/03/18 07:19:10;;;;;;;1.47;1.40;;;3.00;98.00;;;;;;5054421;28;20829;-83
2021/03/18 07:21:38;;;;;;;1.40;1.30;;;3.00;98.00;;;;;;5050539;28;20466;-81
2021/03/18 07:24:23;;;;;;;1.40;1.40;;;3.00;98.00;;;;;;5053244;28;20569;-82
2021/03/18 07:26:51;;;;;;;1.40;1.20;;;3.10;98.00;;;;;;5050927;28;20450;-83
2021/03/18 07:29:19;;;;;;;1.70;1.60;;;3.40;98.00;;;;;;5053184;28;20460;-82
2021/03/18 07:31:49;;;;;;;1.50;1.40;;;3.50;98.00;;;;;;5050523;28;20461;-81
2021/03/18 07:34:16;;;;;;;1.40;1.40;;;3.60;98.00;;;;;;5053049;28;20453;-82
2021/03/18 07:36:43;;;;;;;1.50;1.50;;;3.80;98.00;;;;;;5049154;28;20469;-83
2021/03/18 07:39:10;;;;;;;1.70;1.40;;;3.90;98.00;;;;;;5053456;28;20555;-81
2021/03/18 07:41:38;;;;;;;1.67;1.30;;;3.90;98.00;;;;;;5050059;28;20500;-80
2021/03/18 07:44:06;;;;;;;2.80;1.67;;;3.90;98.00;;;;;;5053437;28;20489;-83
2021/03/18 07:46:36;;;;;;;1.40;1.30;;;3.70;98.00;;;;;;5050043;28;20465;-80
2021/03/18 07:49:13;;;;;;;1.20;0.90;;;3.60;98.00;;;;;;5052868;28;20548;-81
2021/03/18 07:51:42;;;;;;;1.73;1.40;;;3.60;98.00;;;;;;5050696;28;20456;-81
2021/03/18 07:54:13;;;;;;;3.10;2.00;;;3.60;98.00;;;;;;5053211;28;20541;-81
2021/03/18 07:56:45;;;;;;;2.57;2.43;;;3.80;98.00;;;;;;5050238;28;21016;-82
2021/03/18 07:59:13;;;;;;;1.63;1.37;;;3.80;98.00;;;;;;5052523;28;20458;-82
2021/03/18 08:01:41;;;;;;;1.50;1.33;;;3.80;98.00;;;;;;5049906;28;20458;-79
2021/03/18 08:04:11;;;;;;;5.10;1.80;;;3.90;98.00;;;;;;5052481;28;20461;-82
2021/03/18 08:06:54;;;;;;;1.20;1.20;;;3.80;98.00;;;;;;5050099;28;20461;-78
2021/03/18 08:10:00;;;;;;;4.33;2.00;;;3.90;98.00;;;;;;5052120;28;20460;-78
2021/03/18 08:12:51;;;;;;;2.20;2.00;;;3.80;98.00;;;;;;5049855;28;20457;-74
2021/03/18 08:15:32;;;;;;;1.20;1.10;;;4.00;98.00;;;;;;5046713;28;20469;-72
2021/03/18 08:18:32;;;;;;;1.20;1.00;;;3.90;98.00;;;;;;5051992;28;20465;-72
2021/03/18 08:21:02;;;;;;;1.30;1.13;;;3.90;98.00;;;;;;5049274;28;20449;-72
2021/03/18 08:23:51;;;;;;;1.83;1.63;;;4.20;98.00;;;;;;5051409;28;20512;-70
2021/03/18 08:26:37;;;;;;;1.30;1.20;;;4.40;98.00;;;;;;5048424;28;21029;-72
2021/03/18 08:29:07;;;;;;;1.47;1.20;;;4.40;98.00;;;;;;5040654;28;20467;-72
2021/03/18 08:31:52;;;;;;;1.20;1.10;;;4.60;98.00;;;;;;5048656;28;20513;-71
2021/03/18 08:34:19;;;;;;;1.20;1.00;;;4.60;98.00;;;;;;5051068;28;20465;-72
2021/03/18 08:36:58;;;;;;;2.03;1.30;;;4.70;98.00;;;;;;5048522;28;20456;-72
2021/03/18 08:39:38;;;;;;;1.40;1.37;;;4.70;98.00;;;;;;5051056;28;20453;-71
2021/03/18 08:42:05;;;;;;;2.60;2.03;;;4.70;98.00;;;;;;5046717;28;20478;-73
2021/03/18 08:44:43;;;;;;;1.20;1.00;;;4.80;98.00;;;;;;5050843;28;20455;-72
2021/03/18 08:47:13;;;;;;;1.73;1.30;;;5.00;98.00;;;;;;5048808;28;20469;-71
2021/03/18 08:49:43;;;;;;;2.47;1.50;;;5.20;98.00;;;;;;5052233;28;20849;-71
2021/03/18 08:52:17;;;;;;;1.30;1.10;;;5.40;98.00;;;;;;5048898;28;20936;-69
2021/03/18 08:54:51;;;;;;;2.13;1.57;;;5.50;98.00;;;;;;5050742;28;20544;-72
2021/03/18 08:57:30;;;;;;;1.83;1.73;;;5.60;98.00;;;;;;5048416;28;20794;-70
2021/03/18 08:59:58;;;;;;;1.20;1.00;;;5.50;98.00;;;;;;5050975;28;20457;-68
2021/03/18 09:02:31;;;;;;;1.27;1.23;;;5.40;98.00;;;;;;5048196;28;20885;-68
2021/03/18 09:05:13;;;;;;;2.23;1.60;;;5.40;98.00;;;;;;5050655;28;20461;-68
2021/03/18 09:07:42;;;;;;;1.20;1.00;;;5.50;98.00;;;;;;5046885;28;20474;-68
2021/03/18 09:10:15;;;;;;;1.30;1.20;;;5.70;98.00;;;;;;5050527;28;21009;-68
2021/03/18 09:12:47;;;;;;;1.30;1.10;;;5.80;98.00;;;;;;5047877;28;20461;-67
2021/03/18 09:15:23;;;;;;;1.50;1.40;;;5.80;98.00;;;;;;5050483;28;20496;-68
2021/03/18 09:17:52;;;;;;;3.67;1.70;;;5.80;98.00;;;;;;5050768;28;20457;-68
2021/03/18 09:20:24;;;;;;;1.33;1.23;;;5.80;98.00;;;;;;5050836;28;20459;-69
2021/03/18 09:22:52;;;;;;;1.20;1.00;;;7.00;98.00;;;;;;5051212;28;20486;-70
2021/03/18 09:25:27;;;;;;;1.80;1.63;;;8.70;98.00;;;;;;5050556;28;20529;-69
2021/03/18 09:27:54;;;;;;;1.20;1.00;;;9.00;94.30;;;;;;5050886;28;20782;-67
2021/03/18 09:30:28;;;;;;;1.57;1.40;;;9.00;93.80;;;;;;5049474;28;20899;-66
2021/03/18 09:32:56;;;;;;;1.20;1.00;;;8.40;93.90;;;;;;5050685;28;21073;-68
2021/03/18 09:35:26;;;;;;;2.27;1.77;;;8.00;96.80;;;;;;5049904;28;20465;-70
2021/03/18 09:37:54;;;;;;;1.20;1.20;;;7.70;97.70;;;;;;5050544;28;20551;-68
2021/03/18 09:40:32;;;;;;;1.93;1.43;;;7.50;96.50;;;;;;5050591;28;20448;-67
2021/03/18 09:43:02;;;;;;;1.60;1.33;;;7.40;97.90;;;;;;5050487;28;20530;-69
2021/03/18 09:45:29;;;;;;;2.33;1.40;;;7.10;97.20;;;;;;5047644;28;20461;-69
2021/03/18 09:47:56;;;;;;;1.97;1.17;;;7.00;96.30;;;;;;5050087;28;20462;-71
2021/03/18 09:50:25;;;;;;;1.40;1.27;;;6.90;97.10;;;;;;5050226;28;20576;-68
2021/03/18 09:53:05;;;;;;;1.40;1.10;;;6.90;96.30;;;;;;5049340;28;20515;-68
2021/03/18 09:55:31;;;;;;;1.73;1.30;;;6.90;97.60;;;;;;5050995;28;20559;-67
2021/03/18 09:58:06;;;;;;;1.33;1.17;;;7.00;98.00;;;;;;5053880;28;20470;-68
2021/03/18 10:00:33;;;;;;;1.80;1.60;;;7.40;96.80;;;;;;5051509;28;20920;-68
2021/03/18 10:03:00;;;;;;;1.20;1.07;;;7.50;94.20;;;;;;5053809;28;20457;-68
2021/03/18 10:05:27;;;;;;;1.20;1.03;;;7.30;93.50;;;;;;5051060;28;20463;-69
2021/03/18 10:07:56;;;;;;;1.30;1.10;;;7.20;95.80;;;;;;5053279;28;20942;-67
2021/03/18 10:10:23;;;;;;;1.40;1.20;;;7.10;97.60;;;;;;5053779;28;20536;-68
2021/03/18 10:12:52;;;;;;;1.87;1.30;;;6.90;97.70;;;;;;5050519;28;20460;-68
2021/03/18 10:15:20;;;;;;;1.20;1.00;;;6.80;98.00;;;;;;5053225;28;20939;-68
2021/03/18 10:17:48;;;;;;;1.33;1.10;;;6.60;98.00;;;;;;5051238;28;20898;-68
2021/03/18 10:20:17;;;;;;;2.03;1.27;;;6.40;97.80;;;;;;5053696;28;20516;-68
2021/03/18 10:22:46;;;;;;;1.20;1.10;;;6.10;98.00;;;;;;5051053;28;20450;-68
2021/03/18 10:25:16;;;;;;;1.20;1.10;;;6.00;98.00;;;;;;5053210;28;20454;-67
2021/03/18 10:27:45;;;;;;;1.70;1.40;;;5.70;98.00;;;;;;5051258;28;20470;-67
2021/03/18 10:30:15;;;;;;;1.30;1.20;;;5.70;98.00;;;;;;5053528;28;20491;-68
2021/03/18 10:32:43;;;;;;;1.30;1.10;;;5.60;98.00;;;;;;5051036;28;20462;-68
2021/03/18 10:35:13;;;;;;;1.20;1.10;;;5.70;98.00;;;;;;5052114;28;20454;-68
2021/03/18 10:37:43;;;;;;;1.20;0.90;;;5.90;97.40;;;;;;5050774;28;20454;-68
2021/03/18 10:40:17;;;;;;;1.87;1.33;;;6.00;95.60;;;;;;5053284;28;20459;-69
2021/03/18 10:42:48;;;;;;;1.20;1.10;;;5.90;96.60;;;;;;5050787;28;20465;-67
2021/03/18 10:45:18;;;;;;;1.73;1.50;;;6.00;96.70;;;;;;5051822;28;20453;-69
2021/03/18 10:47:45;;;;;;;1.20;1.00;;;6.10;94.40;;;;;;5050739;28;20466;-69
2021/03/18 10:50:14;;;;;;;1.20;1.10;;;6.00;94.80;;;;;;5053066;28;20489;-68
2021/03/18 10:52:41;;;;;;;1.30;1.10;;;6.00;92.10;;;;;;5050635;28;20555;-68
2021/03/18 10:55:09;;;;;;;1.20;0.90;;;6.10;93.30;;;;;;5052919;28;20452;-67
2021/03/18 10:57:36;;;;;;;1.20;1.00;;;6.20;95.90;;;;;;5050425;28;20807;-67
2021/03/18 11:00:07;;;;;;;1.40;1.17;;;6.20;94.40;;;;;;5052904;28;20533;-67
2021/03/18 11:02:34;;;;;;;1.77;1.67;;;6.20;95.40;;;;;;5050249;28;20453;-67
2021/03/18 11:05:05;;;;;;;1.20;1.10;;;6.40;97.20;;;;;;5052329;28;20483;-67
2021/03/18 11:07:32;;;;;;;1.50;1.47;;;6.60;94.00;;;;;;5050080;28;20959;-67
2021/03/18 11:10:11;;;;;;;1.20;1.00;;;6.70;92.10;;;;;;5052621;28;21407;-66
2021/03/18 11:12:38;;;;;;;1.20;1.00;;;6.80;90.40;;;;;;5050208;28;20992;-67
2021/03/18 11:15:08;;;;;;;1.20;1.00;;;6.90;89.40;;;;;;5052484;28;21033;-67
2021/03/18 11:17:36;;;;;;;2.77;1.40;;;7.00;88.50;;;;;;5050324;28;20455;-67
2021/03/18 11:20:10;;;;;;;1.40;1.10;;;7.00;91.40;;;;;;5052162;28;20489;-68
2021/03/18 11:22:38;;;;;;;1.43;1.40;;;7.00;91.70;;;;;;5050082;28;20569;-68
2021/03/18 11:25:07;;;;;;;1.60;1.30;;;7.00;91.20;;;;;;5052334;28;20473;-68
2021/03/18 11:27:35;;;;;;;1.20;1.00;;;7.10;91.80;;;;;;5050081;28;20455;-67
2021/03/18 11:30:03;;;;;;;1.20;1.00;;;7.20;93.10;;;;;;5052171;28;20996;-68
2021/03/18 11:32:32;;;;;;;1.20;0.90;;;7.20;90.40;;;;;;5049707;28;21035;-67
2021/03/18 11:35:00;;;;;;;1.60;1.20;;;7.10;91.90;;;;;;5051829;28;20477;-68
2021/03/18 11:37:28;;;;;;;1.20;1.00;;;7.10;91.20;;;;;;5049673;28;20458;-67
2021/03/18 11:39:55;;;;;;;1.20;1.20;;;7.10;92.60;;;;;;5052369;28;20506;-69
2021/03/18 11:42:22;;;;;;;1.20;0.90;;;7.30;92.50;;;;;;5049665;28;20514;-66
2021/03/18 11:44:48;;;;;;;1.20;1.10;;;7.60;89.90;;;;;;5051777;28;20465;-67
2021/03/18 11:47:15;;;;;;;1.60;1.33;;;7.70;89.90;;;;;;5049263;28;20502;-68
2021/03/18 11:49:50;;;;;;;1.20;1.13;;;7.50;89.40;;;;;;5051813;28;20968;-68
2021/03/18 11:52:19;;;;;;;1.20;1.00;;;7.70;90.40;;;;;;5049543;28;20457;-68
2021/03/18 11:54:46;;;;;;;1.20;1.00;;;7.70;89.60;;;;;;5052400;28;20458;-67
2021/03/18 11:57:13;;;;;;;1.40;1.10;;;7.80;87.80;;;;;;5049922;28;20559;-68
2021/03/18 11:59:40;;;;;;;3.37;1.87;;;7.80;88.90;;;;;;5051801;28;20546;-68
2021/03/18 12:02:07;;;;;;;1.30;1.00;;;8.00;88.00;;;;;;5048842;28;20456;-68
2021/03/18 12:04:34;;;;;;;1.20;1.10;;;7.80;86.30;;;;;;5051233;28;20468;-68
2021/03/18 12:07:01;;;;;;;1.53;1.20;;;7.80;87.20;;;;;;5048900;28;20461;-68
2021/03/18 12:09:28;;;;;;;1.30;1.10;;;8.10;89.00;;;;;;5050506;28;20555;-68
2021/03/18 12:11:54;;;;;;;2.23;1.13;;;8.20;86.70;;;;;;5049065;28;20817;-69
2021/03/18 12:14:21;;;;;;;1.30;1.13;;;8.20;85.90;;;;;;5051345;28;20466;-67
2021/03/18 12:16:48;;;;;;;1.20;1.00;;;8.40;89.30;;;;;;5048093;28;20467;-68
2021/03/18 12:19:14;;;;;;;1.20;1.00;;;8.60;85.90;;;;;;5050923;28;20468;-68
2021/03/18 12:21:41;;;;;;;1.20;1.00;;;8.90;85.50;;;;;;5048941;28;20468;-68
2021/03/18 12:24:12;;;;;;;1.43;1.40;;;9.00;83.30;;;;;;5051230;28;20498;-69
2021/03/18 12:26:40;;;;;;;1.20;1.00;;;9.00;85.20;;;;;;5048662;28;20461;-69
2021/03/18 12:29:06;;;;;;;2.13;1.37;;;8.90;83.20;;;;;;5051401;28;20462;-68
2021/03/18 12:31:33;;;;;;;1.20;1.00;;;8.70;84.60;;;;;;5048573;28;20494;-68
2021/03/18 12:34:00;;;;;;;1.83;1.30;;;8.20;88.60;;;;;;5051012;28;20512;-69
2021/03/18 12:36:27;;;;;;;1.30;1.20;;;7.90;92.50;;;;;;5048242;28;20470;-69
2021/03/18 12:38:53;;;;;;;3.13;1.43;;;7.40;94.70;;;;;;5051476;28;20468;-68
2021/03/18 12:41:21;;;;;;;1.20;1.07;;;6.90;95.00;;;;;;5047482;28;21138;-68
2021/03/18 12:43:47;;;;;;;1.20;1.10;;;6.70;97.60;;;;;;5051165;28;20476;-68
2021/03/18 12:46:14;;;;;;;2.23;1.37;;;6.40;98.00;;;;;;5048436;28;20497;-68
2021/03/18 12:48:40;;;;;;;1.30;1.23;;;6.30;98.00;;;;;;5050819;28;20500;-69
2021/03/18 12:51:07;;;;;;;1.30;1.00;;;6.20;98.00;;;;;;5048221;28;21075;-70
2021/03/18 12:53:33;;;;;;;1.70;1.10;;;6.30;98.00;;;;;;5051053;28;20472;-69
2021/03/18 12:56:02;;;;;;;1.40;1.20;;;6.30;98.00;;;;;;5048498;28;20464;-70
2021/03/18 12:58:30;;;;;;;1.20;1.00;;;6.30;98.00;;;;;;5050341;28;20451;-69
2021/03/18 13:00:57;;;;;;;1.20;1.00;;;6.40;98.00;;;;;;5048577;28;20458;-70
2021/03/18 13:03:24;;;;;;;2.53;1.30;;;6.50;98.00;;;;;;5050460;28;20463;-70
2021/03/18 13:05:50;;;;;;;1.20;1.00;;;6.70;98.00;;;;;;5048540;28;20472;-71
2021/03/18 13:08:17;;;;;;;1.30;1.20;;;6.80;98.00;;;;;;5050828;28;20821;-72
2021/03/18 13:10:43;;;;;;;1.20;1.00;;;6.80;98.00;;;;;;5050351;28;20526;-71